Terminal Aerodrome Forecast
Issued by NWS

Home | Current Version | Previous Version | Text Only | Print | Product List | Glossary On
Versions: 1 2 3 4 5 6 7 8 9 10 11 12 13 14 15 16 17 18 19 20 21 22 23 24 25 26 27 28 29 30 31 32 33 34 35 36 37 38 39 40 41 42 43 44
000
FTUS46 KEKA 291140
TAFACV
TAF
KACV 291140Z 2912/3012 09003KT 6SM BR BKN120 OVC200
     FM291500 04003KT P6SM SCT200
     FM291800 32007KT P6SM SCT250
     FM300300 36003KT 6SM BR BKN250
     FM300600 03003KT 5SM BR SCT015 BKN250=

USA.gov is the U.S. government's official web portal to all federal, state and local government web resources and services.